Time;durP1;ratioP1;P1;durP2;ratioP2;P2;SDS_P1;SDS_P2;PMS_P1;PMS_P2;Temp;Humidity;BMP_temperature;BMP_pressure;BME280_temperature;BME280_humidity;BME280_pressure;Samples;Min_cycle;Max_cycle;Signal;HPM_P1;HPM_P2
2022/06/15 00:05:42;;;;;;;1.67;0.85;;;15.00;99.90;;;;;;20788064;28;20455;-40
2022/06/15 00:15:46;;;;;;;1.90;0.70;;;14.80;99.90;;;;;;20788963;28;20037;-40
2022/06/15 00:25:51;;;;;;;1.85;0.70;;;14.60;99.90;;;;;;20784701;28;20037;-40
2022/06/15 00:36:02;;;;;;;4.57;0.90;;;14.50;99.90;;;;;;20786903;28;20719;-40
2022/06/15 00:46:34;;;;;;;3.22;1.20;;;14.40;99.90;;;;;;20781380;28;20122;-40
2022/06/15 00:56:36;;;;;;;1.80;0.93;;;14.30;99.90;;;;;;20790719;28;20540;-41
2022/06/15 01:06:55;;;;;;;2.83;1.02;;;14.30;99.90;;;;;;20793918;28;20029;-41
2022/06/15 01:17:08;;;;;;;3.28;0.65;;;14.20;99.90;;;;;;20805868;28;20380;-41
2022/06/15 01:27:27;;;;;;;2.55;0.90;;;14.10;99.90;;;;;;20806332;28;20041;-41
2022/06/15 01:37:54;;;;;;;2.10;0.90;;;13.90;99.90;;;;;;20795635;28;20484;-42
2022/06/15 01:47:59;;;;;;;1.63;0.95;;;13.90;99.90;;;;;;20800005;28;20095;-41
2022/06/15 01:58:06;;;;;;;3.42;1.70;;;13.80;99.90;;;;;;20806851;28;20049;-40
2022/06/15 02:08:47;;;;;;;2.55;0.90;;;13.90;99.90;;;;;;20780865;28;20049;-41
2022/06/15 02:18:49;;;;;;;2.53;1.25;;;13.70;99.90;;;;;;20803243;28;21328;-41
2022/06/15 02:28:54;;;;;;;2.60;1.30;;;13.60;99.90;;;;;;20795525;28;20127;-41
2022/06/15 02:38:57;;;;;;;1.65;0.73;;;13.60;99.90;;;;;;20805460;28;20657;-42
2022/06/15 02:48:58;;;;;;;5.30;0.90;;;13.60;99.90;;;;;;20800128;28;20037;-43
2022/06/15 02:59:00;;;;;;;2.30;0.95;;;13.50;99.90;;;;;;20798384;28;20042;-42
2022/06/15 03:09:01;;;;;;;2.47;1.00;;;13.30;99.90;;;;;;20792083;28;20044;-40
2022/06/15 03:19:02;;;;;;;1.35;0.65;;;13.30;99.90;;;;;;20794103;28;20034;-40
2022/06/15 03:29:05;;;;;;;2.45;1.63;;;13.20;99.90;;;;;;20788566;28;20052;-40
2022/06/15 03:39:06;;;;;;;2.17;0.80;;;13.10;99.90;;;;;;20775955;28;20041;-40
2022/06/15 03:49:07;;;;;;;3.83;1.08;;;13.00;99.90;;;;;;20790953;28;20045;-40
2022/06/15 03:59:09;;;;;;;1.00;0.68;;;13.00;99.90;;;;;;20801186;28;20048;-40
2022/06/15 04:09:10;;;;;;;1.98;0.77;;;13.10;99.90;;;;;;20794004;28;20405;-40
2022/06/15 04:19:11;;;;;;;2.47;0.95;;;12.90;99.90;;;;;;20798911;28;20082;-40
2022/06/15 04:29:13;;;;;;;1.75;1.05;;;12.90;99.90;;;;;;20784351;28;20041;-40
2022/06/15 04:39:15;;;;;;;1.67;0.77;;;13.00;99.90;;;;;;20787792;28;20061;-40
2022/06/15 04:49:16;;;;;;;2.20;0.90;;;13.00;99.90;;;;;;20801614;28;20041;-40
2022/06/15 04:59:17;;;;;;;2.03;1.05;;;13.20;99.90;;;;;;20806481;28;20045;-41
2022/06/15 05:09:18;;;;;;;2.63;1.60;;;13.60;99.90;;;;;;20802683;28;20050;-41
2022/06/15 05:19:19;;;;;;;1.98;0.73;;;14.20;99.90;;;;;;20796848;28;20628;-40
2022/06/15 05:29:22;;;;;;;2.67;0.77;;;14.50;99.90;;;;;;20793231;28;20400;-41
2022/06/15 05:39:23;;;;;;;1.58;0.70;;;14.90;99.90;;;;;;20793833;28;20633;-40
2022/06/15 05:49:24;;;;;;;2.05;0.68;;;15.10;99.90;;;;;;20795732;28;20049;-41
2022/06/15 05:59:26;;;;;;;1.77;0.82;;;15.60;99.90;;;;;;20800057;28;20046;-40
2022/06/15 06:09:28;;;;;;;1.75;0.60;;;16.00;99.90;;;;;;20803159;28;20041;-41
2022/06/15 06:19:29;;;;;;;2.83;1.30;;;16.40;99.90;;;;;;20811598;28;20541;-40
2022/06/15 06:29:30;;;;;;;1.85;0.73;;;16.70;99.90;;;;;;20813429;28;20184;-40
2022/06/15 06:39:32;;;;;;;1.63;0.95;;;17.00;99.90;;;;;;20802849;28;20548;-40
2022/06/15 06:49:33;;;;;;;1.88;0.75;;;17.20;99.90;;;;;;20799119;28;20399;-40
2022/06/15 06:59:34;;;;;;;2.03;0.70;;;17.60;99.90;;;;;;20768526;28;20061;-39
2022/06/15 07:09:36;;;;;;;2.42;0.82;;;17.80;99.90;;;;;;20722019;28;20045;-39
2022/06/15 07:19:37;;;;;;;2.40;1.00;;;18.20;99.90;;;;;;20791749;28;20075;-39
2022/06/15 07:29:39;;;;;;;1.75;0.80;;;18.10;99.90;;;;;;20786109;28;20052;-39
2022/06/15 07:39:41;;;;;;;2.13;0.90;;;18.10;99.90;;;;;;20784423;28;20047;-39
2022/06/15 07:49:54;;;;;;;1.67;0.63;;;18.40;99.90;;;;;;20789713;28;20171;-39
2022/06/15 07:59:56;;;;;;;1.23;0.60;;;18.50;99.90;;;;;;20792290;28;20079;-39
2022/06/15 08:09:57;;;;;;;1.95;0.70;;;18.80;99.90;;;;;;20784490;28;20056;-39
2022/06/15 08:20:05;;;;;;;5.25;0.68;;;19.20;99.90;;;;;;20782806;28;20056;-38
2022/06/15 08:30:10;;;;;;;2.03;0.70;;;19.50;99.90;;;;;;20786731;28;20052;-39
2022/06/15 08:40:12;;;;;;;2.05;0.50;;;19.70;99.90;;;;;;20774604;28;20049;-39
2022/06/15 08:50:49;;;;;;;1.08;0.40;;;19.90;99.90;;;;;;20779894;28;20608;-39
2022/06/15 09:00:54;;;;;;;3.90;0.90;;;20.30;99.90;;;;;;20765936;28;20249;-39
2022/06/15 09:11:27;;;;;;;1.63;0.40;;;20.50;99.90;;;;;;20786261;28;20045;-39
2022/06/15 09:21:43;;;;;;;1.00;0.40;;;20.60;99.90;;;;;;20712312;28;20049;-39
2022/06/15 09:32:17;;;;;;;1.50;0.70;;;20.90;99.90;;;;;;20762141;28;20041;-39
2022/06/15 09:42:43;;;;;;;1.10;0.60;;;21.10;99.90;;;;;;20788137;28;20834;-39
2022/06/15 09:53:07;;;;;;;1.08;0.52;;;21.30;99.90;;;;;;20796377;28;20321;-39
2022/06/15 10:03:35;;;;;;;1.17;0.73;;;21.50;99.90;;;;;;20742821;28;20045;-39
2022/06/15 10:13:37;;;;;;;;;;;21.50;99.90;;;;;;20788740;28;20068;-39
2022/06/15 10:24:13;;;;;;;1.30;0.68;;;21.60;99.90;;;;;;20769170;28;20345;-39
2022/06/15 10:34:28;;;;;;;1.08;0.45;;;21.80;99.90;;;;;;20789913;28;20049;-39
2022/06/15 10:44:34;;;;;;;0.82;0.32;;;21.80;99.90;;;;;;20808463;28;20045;-39
2022/06/15 11:02:06;;;;;;;1.10;0.50;;;21.90;99.90;;;;;;20808148;28;20045;-40
2022/06/15 11:05:06;;;;;;;1.85;0.70;;;21.90;99.90;;;;;;20794349;28;20502;-39
2022/06/15 11:15:13;;;;;;;1.10;0.55;;;21.80;99.90;;;;;;20795831;28;20060;-39
2022/06/15 11:25:17;;;;;;;1.35;0.60;;;22.00;99.90;;;;;;20797382;28;20483;-39
2022/06/15 11:35:39;;;;;;;2.47;0.90;;;22.00;99.90;;;;;;20787493;28;20057;-39
2022/06/15 11:46:11;;;;;;;1.92;0.40;;;22.80;99.90;;;;;;20792405;28;20492;-39
2022/06/15 11:56:16;;;;;;;1.52;0.70;;;22.90;99.90;;;;;;20766917;28;20716;-39
2022/06/15 12:06:23;;;;;;;2.65;0.75;;;22.90;99.80;;;;;;20801231;28;21465;-39
2022/06/15 12:16:59;;;;;;;1.05;0.43;;;22.90;99.90;;;;;;20797850;28;20160;-40
2022/06/15 12:27:06;;;;;;;0.73;0.32;;;23.10;99.90;;;;;;20795616;28;21515;-40
2022/06/15 12:37:29;;;;;;;2.97;0.83;;;23.20;99.90;;;;;;20797236;28;20374;-40
2022/06/15 12:47:32;;;;;;;1.00;0.50;;;23.30;99.90;;;;;;20803098;28;20479;-40
2022/06/15 12:57:44;;;;;;;1.38;0.68;;;23.60;99.90;;;;;;20789782;28;20056;-40
2022/06/15 13:08:17;;;;;;;2.13;0.68;;;23.60;99.90;;;;;;20808490;28;20731;-40
2022/06/15 13:18:19;;;;;;;1.55;0.98;;;23.50;99.90;;;;;;20819997;28;20049;-40
2022/06/15 13:28:31;;;;;;;1.08;0.40;;;23.40;99.90;;;;;;20822876;28;20378;-40
2022/06/15 13:38:35;;;;;;;1.85;0.50;;;23.50;99.90;;;;;;20824137;28;20055;-40
2022/06/15 13:48:43;;;;;;;2.30;0.68;;;23.50;99.90;;;;;;20814218;28;20293;-40
2022/06/15 13:59:08;;;;;;;1.90;0.68;;;23.10;99.90;;;;;;20790831;28;20424;-40
2022/06/15 14:09:37;;;;;;;1.20;0.40;;;23.20;99.90;;;;;;20782094;28;20152;-40
2022/06/15 14:19:44;;;;;;;1.38;0.60;;;23.30;99.90;;;;;;20809107;28;20292;-40
2022/06/15 14:29:46;;;;;;;1.42;0.88;;;23.20;99.90;;;;;;20807600;28;20053;-40
2022/06/15 14:39:54;;;;;;;2.45;0.60;;;23.00;99.90;;;;;;20788157;28;20349;-40
2022/06/15 14:49:57;;;;;;;2.83;0.70;;;22.80;99.90;;;;;;20751527;28;20041;-40
2022/06/15 15:00:03;;;;;;;1.40;0.60;;;22.70;99.90;;;;;;20810283;28;20072;-40
2022/06/15 15:10:37;;;;;;;1.33;0.50;;;22.70;99.90;;;;;;20799211;28;20040;-40
2022/06/15 15:20:41;;;;;;;1.88;0.60;;;22.80;99.90;;;;;;20763044;28;21287;-40
2022/06/15 15:41:19;;;;;;;0.90;0.50;;;22.80;99.90;;;;;;20785358;28;21307;-40
2022/06/15 15:51:20;;;;;;;2.47;1.00;;;22.70;99.90;;;;;;20791846;28;20129;-40
2022/06/15 16:01:21;;;;;;;1.95;0.70;;;22.60;99.90;;;;;;20787949;28;20049;-40
2022/06/15 16:11:22;;;;;;;6.63;1.02;;;22.40;99.90;;;;;;20797666;28;20670;-40
2022/06/15 16:21:23;;;;;;;2.20;1.02;;;22.70;99.90;;;;;;20787098;28;20040;-40
2022/06/15 16:31:24;;;;;;;1.58;0.82;;;22.60;99.90;;;;;;20799034;28;20029;-40
2022/06/15 16:41:29;;;;;;;2.53;0.85;;;22.50;99.90;;;;;;20799081;28;20130;-40
2022/06/15 16:51:32;;;;;;;1.35;0.75;;;22.20;99.90;;;;;;20815847;28;20701;-40
2022/06/15 17:01:34;;;;;;;1.77;0.75;;;22.30;99.90;;;;;;20764347;28;20083;-40
2022/06/15 17:11:36;;;;;;;1.63;0.70;;;22.10;99.90;;;;;;20791413;28;20440;-40
2022/06/15 17:21:41;;;;;;;2.60;0.80;;;21.80;99.90;;;;;;20785428;28;20049;-40
2022/06/15 17:31:46;;;;;;;1.02;0.50;;;21.70;99.90;;;;;;20802328;28;20467;-40
2022/06/15 17:41:50;;;;;;;1.13;0.60;;;21.50;99.90;;;;;;20822118;28;20131;-40
2022/06/15 17:51:52;;;;;;;1.10;0.57;;;21.50;99.90;;;;;;20830871;28;20064;-40
2022/06/15 18:01:54;;;;;;;1.77;0.60;;;21.20;99.90;;;;;;20811001;28;20543;-40
2022/06/15 18:11:55;;;;;;;6.20;1.85;;;20.90;99.90;;;;;;20820377;28;20045;-40
2022/06/15 18:21:57;;;;;;;1.08;0.57;;;20.70;99.90;;;;;;20818774;28;20492;-40
2022/06/15 18:32:06;;;;;;;2.92;0.60;;;20.70;99.90;;;;;;20798064;28;20064;-40
2022/06/15 18:42:09;;;;;;;1.85;0.55;;;20.60;99.90;;;;;;20818129;28;20056;-40
2022/06/15 18:52:10;;;;;;;1.17;0.60;;;20.50;99.90;;;;;;20778134;28;20176;-40
2022/06/15 19:02:11;;;;;;;1.63;1.00;;;20.50;99.90;;;;;;20763745;28;20048;-40
2022/06/15 19:12:12;;;;;;;2.22;0.85;;;20.30;99.90;;;;;;20789731;28;20053;-40
2022/06/15 19:22:13;;;;;;;1.45;0.60;;;20.20;99.90;;;;;;20772181;28;20041;-40
2022/06/15 19:32:14;;;;;;;2.10;0.73;;;20.00;99.90;;;;;;20800047;28;20052;-40
2022/06/15 19:42:16;;;;;;;1.85;0.85;;;19.90;99.90;;;;;;20795670;28;20195;-40
2022/06/15 19:52:18;;;;;;;3.42;1.63;;;19.80;99.90;;;;;;20800687;28;20393;-40
2022/06/15 20:02:22;;;;;;;2.88;0.80;;;19.70;99.90;;;;;;20799113;28;20400;-40
2022/06/15 20:12:23;;;;;;;1.25;0.85;;;19.60;99.90;;;;;;20781430;28;20049;-40
2022/06/15 20:22:33;;;;;;;4.50;1.48;;;19.50;99.90;;;;;;20788416;28;20389;-40
2022/06/15 20:32:34;;;;;;;2.55;0.73;;;19.40;99.90;;;;;;20786425;28;20101;-40
2022/06/15 20:42:36;;;;;;;6.78;2.60;;;19.40;99.90;;;;;;20782740;28;20296;-40
2022/06/15 20:52:39;;;;;;;2.08;0.95;;;19.30;99.90;;;;;;20788459;28;20060;-40
2022/06/15 21:02:40;;;;;;;6.20;0.68;;;19.30;99.90;;;;;;20782875;28;20318;-40
2022/06/15 21:23:02;;;;;;;1.80;0.98;;;19.00;99.90;;;;;;20763008;28;20057;-40
2022/06/15 21:33:03;;;;;;;1.65;0.85;;;19.00;99.90;;;;;;20803328;28;20064;-40
2022/06/15 21:43:05;;;;;;;1.35;0.50;;;18.90;99.90;;;;;;20809666;28;20609;-40
2022/06/15 21:53:06;;;;;;;1.30;0.63;;;18.80;99.90;;;;;;20806144;28;20500;-40
2022/06/15 22:03:07;;;;;;;1.75;0.60;;;18.60;99.90;;;;;;20812242;28;20052;-41
2022/06/15 22:13:08;;;;;;;2.22;0.70;;;18.50;99.90;;;;;;20790298;28;20392;-40
2022/06/15 22:23:09;;;;;;;2.05;0.82;;;18.40;99.90;;;;;;20779672;28;20048;-40
2022/06/15 22:33:11;;;;;;;1.67;0.73;;;18.30;99.90;;;;;;20807784;28;20517;-40
2022/06/15 22:43:12;;;;;;;1.17;0.47;;;18.20;99.90;;;;;;20798832;28;20386;-40
2022/06/15 22:53:13;;;;;;;1.30;0.68;;;18.10;99.90;;;;;;20790292;28;20052;-40
2022/06/15 23:03:18;;;;;;;1.92;0.90;;;17.90;99.90;;;;;;20763152;28;20042;-40
2022/06/15 23:13:20;;;;;;;1.05;0.50;;;17.80;99.90;;;;;;20790489;28;20253;-40
2022/06/15 23:23:21;;;;;;;1.55;0.55;;;17.70;99.90;;;;;;20809368;28;20405;-40
2022/06/15 23:33:22;;;;;;;4.57;0.65;;;17.60;99.90;;;;;;20791576;28;20055;-40
2022/06/15 23:43:24;;;;;;;1.20;0.47;;;17.50;99.90;;;;;;20792381;28;20052;-40
2022/06/15 23:53:25;;;;;;;4.18;1.60;;;17.30;99.90;;;;;;20806872;28;20048;-40
